Time;durP1;ratioP1;P1;durP2;ratioP2;P2;SDS_P1;SDS_P2;PMS_P1;PMS_P2;Temp;Humidity;BMP_temperature;BMP_pressure;BME280_temperature;BME280_humidity;BME280_pressure;Samples;Min_cycle;Max_cycle;Signal;HPM_P1;HPM_P2
2022/05/04 00:00:20;;;;;;;4.78;3.90;;;;;;;;;;4991257;28;20497;-71
2022/05/04 00:02:47;;;;;;;6.25;3.72;;;;;;;;;;4990435;28;20054;-70
2022/05/04 00:05:12;;;;;;;5.97;4.00;;;;;;;;;;4988918;28;20042;-70
2022/05/04 00:07:38;;;;;;;7.90;4.30;;;;;;;;;;4981629;28;20038;-70
2022/05/04 00:10:05;;;;;;;5.10;3.80;;;;;;;;;;4974898;28;20046;-69
2022/05/04 00:12:32;;;;;;;4.68;4.18;;;;;;;;;;4988719;28;20031;-69
2022/05/04 00:14:58;;;;;;;4.82;3.78;;;;;;;;;;4991332;28;20057;-69
2022/05/04 00:17:23;;;;;;;4.30;3.83;;;;;;;;;;4989017;28;20068;-70
2022/05/04 00:19:49;;;;;;;4.53;4.05;;;;;;;;;;4991506;28;20030;-70
2022/05/04 00:22:19;;;;;;;8.27;3.83;;;;;;;;;;4990525;28;20050;-71
2022/05/04 00:24:45;;;;;;;6.80;4.00;;;;;;;;;;4989610;28;20106;-70
2022/05/04 00:27:10;;;;;;;6.50;3.50;;;;;;;;;;4989063;28;20398;-70
2022/05/04 00:29:35;;;;;;;8.98;3.90;;;;;;;;;;4989513;28;20034;-71
2022/05/04 00:32:01;;;;;;;4.55;3.40;;;;;;;;;;4989258;28;20066;-74
2022/05/04 00:34:27;;;;;;;5.63;3.63;;;;;;;;;;4990271;28;20038;-69
2022/05/04 00:36:52;;;;;;;7.90;3.70;;;;;;;;;;4987938;28;20026;-70
2022/05/04 00:39:17;;;;;;;5.57;3.42;;;;;;;;;;4990752;28;20091;-70
2022/05/04 00:41:43;;;;;;;5.95;3.10;;;;;;;;;;4990195;28;20026;-70
2022/05/04 00:44:08;;;;;;;5.38;3.38;;;;;;;;;;4989760;28;20034;-70
2022/05/04 00:46:33;;;;;;;3.88;2.92;;;;;;;;;;4990457;28;20030;-70
2022/05/04 00:48:59;;;;;;;5.45;3.17;;;;;;;;;;4989649;28;20116;-70
2022/05/04 00:51:25;;;;;;;3.50;3.20;;;;;;;;;;4990049;28;20035;-69
2022/05/04 00:53:50;;;;;;;3.83;2.88;;;;;;;;;;4989897;28;20042;-70
2022/05/04 00:56:16;;;;;;;6.63;3.30;;;;;;;;;;4990333;28;20042;-70
2022/05/04 00:58:56;;;;;;;5.90;3.10;;;;;;;;;;4990291;28;20031;-69
2022/05/04 01:01:27;;;;;;;4.03;3.00;;;;;;;;;;4984107;28;20204;-70
2022/05/04 01:03:54;;;;;;;3.45;3.13;;;;;;;;;;4987669;28;20034;-70
2022/05/04 01:06:20;;;;;;;4.75;2.90;;;;;;;;;;4989413;28;20109;-71
2022/05/04 01:08:46;;;;;;;4.40;3.05;;;;;;;;;;5004104;28;20678;-72
2022/05/04 01:11:12;;;;;;;4.82;2.95;;;;;;;;;;4987162;28;20030;-70
2022/05/04 01:13:37;;;;;;;3.50;2.80;;;;;;;;;;4989930;28;20105;-70
2022/05/04 01:16:03;;;;;;;4.47;3.28;;;;;;;;;;4988790;28;20125;-70
2022/05/04 01:18:28;;;;;;;5.13;3.17;;;;;;;;;;4989356;28;20026;-71
2022/05/04 01:20:54;;;;;;;8.73;3.92;;;;;;;;;;4989884;28;20038;-71
2022/05/04 01:23:19;;;;;;;5.00;2.97;;;;;;;;;;4987580;28;20042;-70
2022/05/04 01:25:45;;;;;;;4.03;2.90;;;;;;;;;;4990451;28;20100;-71
2022/05/04 01:28:10;;;;;;;4.53;2.83;;;;;;;;;;4988750;28;20133;-71
2022/05/04 01:30:36;;;;;;;4.63;3.10;;;;;;;;;;4990584;28;20030;-71
2022/05/04 01:33:02;;;;;;;3.28;2.97;;;;;;;;;;4989736;28;20034;-70
2022/05/04 01:35:31;;;;;;;5.13;3.03;;;;;;;;;;4986654;28;20556;-72
2022/05/04 01:37:56;;;;;;;5.13;3.05;;;;;;;;;;4989994;28;20110;-72
2022/05/04 01:40:22;;;;;;;6.35;3.30;;;;;;;;;;4988763;28;20034;-70
2022/05/04 01:42:47;;;;;;;3.47;3.10;;;;;;;;;;4987521;28;20026;-71
2022/05/04 01:45:12;;;;;;;4.35;3.10;;;;;;;;;;5004734;28;20030;-70
2022/05/04 01:47:38;;;;;;;4.20;3.30;;;;;;;;;;4988839;28;20117;-69
2022/05/04 01:50:04;;;;;;;4.75;3.13;;;;;;;;;;4988978;28;20035;-71
2022/05/04 01:52:30;;;;;;;5.20;2.80;;;;;;;;;;4989065;28;20141;-72
2022/05/04 01:54:58;;;;;;;4.20;2.80;;;;;;;;;;4990227;28;20517;-71
2022/05/04 01:57:24;;;;;;;4.07;2.85;;;;;;;;;;4989257;28;20026;-70
2022/05/04 01:59:49;;;;;;;5.05;2.90;;;;;;;;;;4989474;28;20521;-72
2022/05/04 02:02:14;;;;;;;5.53;3.20;;;;;;;;;;4988733;28;20042;-71
2022/05/04 02:04:40;;;;;;;6.75;2.90;;;;;;;;;;4989386;28;20424;-73
2022/05/04 02:07:08;;;;;;;5.85;3.17;;;;;;;;;;4988388;28;20058;-72
2022/05/04 02:09:35;;;;;;;5.18;2.55;;;;;;;;;;5002567;28;20470;-73
2022/05/04 02:12:02;;;;;;;4.13;2.67;;;;;;;;;;4988298;28;20125;-72
2022/05/04 02:14:27;;;;;;;4.80;2.83;;;;;;;;;;4988114;28;20049;-72
2022/05/04 02:16:53;;;;;;;3.70;3.00;;;;;;;;;;4989371;28;20030;-72
2022/05/04 02:19:18;;;;;;;4.28;3.30;;;;;;;;;;5002971;28;20092;-72
2022/05/04 02:21:44;;;;;;;4.68;3.47;;;;;;;;;;4988884;28;20038;-71
2022/05/04 02:24:09;;;;;;;4.03;2.97;;;;;;;;;;4989026;28;20034;-73
2022/05/04 02:26:34;;;;;;;5.10;3.40;;;;;;;;;;4987479;28;20049;-78
2022/05/04 02:29:00;;;;;;;3.88;3.20;;;;;;;;;;4989515;28;20039;-78
2022/05/04 02:31:25;;;;;;;4.35;3.17;;;;;;;;;;4993681;28;20034;-76
2022/05/04 02:33:50;;;;;;;5.53;3.20;;;;;;;;;;4993085;28;21139;-77
2022/05/04 02:39:00;;;;;;;5.40;3.45;;;;;;;;;;4994852;28;20061;-78
2022/05/04 02:41:25;;;;;;;3.25;2.92;;;;;;;;;;4995019;28;20330;-77
2022/05/04 02:43:51;;;;;;;7.68;3.38;;;;;;;;;;4995445;28;20034;-78
2022/05/04 02:46:18;;;;;;;4.15;2.92;;;;;;;;;;4991337;28;20038;-78
2022/05/04 02:48:45;;;;;;;8.70;3.15;;;;;;;;;;4994338;28;20029;-76
2022/05/04 02:51:11;;;;;;;3.75;2.90;;;;;;;;;;4994655;28;20393;-77
2022/05/04 02:53:36;;;;;;;5.60;3.15;;;;;;;;;;4992033;28;20121;-73
2022/05/04 02:56:02;;;;;;;5.47;3.20;;;;;;;;;;4990720;28;20487;-73
2022/05/04 02:58:28;;;;;;;3.55;2.85;;;;;;;;;;4991795;28;20048;-73
2022/05/04 03:00:53;;;;;;;4.40;3.08;;;;;;;;;;4991655;28;20085;-73
2022/05/04 03:03:19;;;;;;;4.05;3.03;;;;;;;;;;4991656;28;20397;-73
2022/05/04 03:05:44;;;;;;;6.63;3.47;;;;;;;;;;4995168;28;20046;-72
2022/05/04 03:08:10;;;;;;;4.40;3.28;;;;;;;;;;4992457;28;20193;-73
2022/05/04 03:11:54;;;;;;;3.47;3.00;;;;;;;;;;4992515;28;20038;-73
2022/05/04 03:13:20;;;;;;;4.28;3.47;;;;;;;;;;4991018;28;20034;-72
2022/05/04 03:15:46;;;;;;;4.30;3.30;;;;;;;;;;4993112;28;20026;-71
2022/05/04 03:18:11;;;;;;;7.53;3.63;;;;;;;;;;4992921;28;20018;-71
2022/05/04 03:20:36;;;;;;;5.28;3.33;;;;;;;;;;4991580;28;20038;-71
2022/05/04 03:23:02;;;;;;;4.82;3.30;;;;;;;;;;4993283;28;20070;-72
2022/05/04 03:25:27;;;;;;;5.53;3.80;;;;;;;;;;4989048;28;20409;-72
2022/05/04 03:27:53;;;;;;;7.93;3.45;;;;;;;;;;4991404;28;20026;-73
2022/05/04 03:30:18;;;;;;;4.57;3.40;;;;;;;;;;4991976;28;20018;-74
2022/05/04 03:32:44;;;;;;;7.72;4.07;;;;;;;;;;4992632;28;20038;-72
2022/05/04 03:35:09;;;;;;;5.07;3.80;;;;;;;;;;4992705;28;20398;-71
2022/05/04 03:37:35;;;;;;;6.60;3.70;;;;;;;;;;5006482;28;20041;-73
2022/05/04 03:40:00;;;;;;;4.35;3.50;;;;;;;;;;4991234;28;20038;-72
2022/05/04 03:42:26;;;;;;;5.47;3.65;;;;;;;;;;4990678;28;20026;-73
2022/05/04 03:44:51;;;;;;;4.95;3.50;;;;;;;;;;4991597;28;20045;-73
2022/05/04 03:47:16;;;;;;;5.75;3.70;;;;;;;;;;4990506;28;20521;-73
2022/05/04 03:49:42;;;;;;;6.47;4.07;;;;;;;;;;4991880;28;20093;-72
2022/05/04 03:52:08;;;;;;;6.35;3.90;;;;;;;;;;4990863;28;20038;-72
2022/05/04 03:54:34;;;;;;;7.63;4.20;;;;;;;;;;5002552;28;20033;-71
2022/05/04 03:56:59;;;;;;;6.97;3.90;;;;;;;;;;4992477;28;20038;-72
2022/05/04 03:59:24;;;;;;;3.92;3.53;;;;;;;;;;4990790;28;20034;-73
2022/05/04 04:01:50;;;;;;;5.57;4.22;;;;;;;;;;4990785;28;20042;-73
2022/05/04 04:04:15;;;;;;;6.78;3.95;;;;;;;;;;4988043;28;20402;-73
2022/05/04 04:06:40;;;;;;;5.10;4.07;;;;;;;;;;4990629;28;20092;-74
2022/05/04 04:09:06;;;;;;;5.60;3.92;;;;;;;;;;4991191;28;20038;-73
2022/05/04 04:11:32;;;;;;;5.53;3.65;;;;;;;;;;4989902;28;20034;-74
2022/05/04 04:13:58;;;;;;;4.43;3.70;;;;;;;;;;4990431;28;20494;-73
2022/05/04 04:16:23;;;;;;;8.55;3.90;;;;;;;;;;4991324;28;20084;-74
2022/05/04 04:18:49;;;;;;;7.32;3.85;;;;;;;;;;4989641;28;20109;-73
2022/05/04 04:23:58;;;;;;;5.63;4.07;;;;;;;;;;4991458;28;20073;-74
2022/05/04 04:26:23;;;;;;;5.00;4.00;;;;;;;;;;4991652;28;20451;-74
2022/05/04 04:28:48;;;;;;;6.10;4.13;;;;;;;;;;5007167;28;20035;-74
2022/05/04 04:31:14;;;;;;;6.30;3.83;;;;;;;;;;5007055;28;20091;-72
2022/05/04 04:33:39;;;;;;;4.75;3.95;;;;;;;;;;4991070;28;20026;-71
2022/05/04 04:36:05;;;;;;;8.07;4.10;;;;;;;;;;4991191;28;20034;-72
2022/05/04 04:38:31;;;;;;;5.45;4.20;;;;;;;;;;4991946;28;20053;-73
2022/05/04 04:40:57;;;;;;;5.38;4.40;;;;;;;;;;4990379;28;20498;-73
2022/05/04 04:43:22;;;;;;;8.20;4.07;;;;;;;;;;4990476;28;20038;-72
2022/05/04 04:45:49;;;;;;;5.90;3.90;;;;;;;;;;4989970;28;20026;-72
2022/05/04 04:48:16;;;;;;;9.68;4.25;;;;;;;;;;4990808;28;20034;-72
2022/05/04 04:50:42;;;;;;;7.55;4.60;;;;;;;;;;4988720;28;20042;-70
2022/05/04 04:53:08;;;;;;;7.45;4.40;;;;;;;;;;4986880;28;20034;-75
2022/05/04 04:55:33;;;;;;;4.88;4.32;;;;;;;;;;4990293;28;20517;-73
2022/05/04 04:57:59;;;;;;;10.18;4.50;;;;;;;;;;5002235;28;20031;-72
2022/05/04 05:00:27;;;;;;;6.38;4.13;;;;;;;;;;4991140;28;20394;-74
2022/05/04 05:02:53;;;;;;;10.57;4.10;;;;;;;;;;4990072;28;20044;-73
2022/05/04 05:05:18;;;;;;;6.45;4.28;;;;;;;;;;4989969;28;20034;-71
2022/05/04 05:07:44;;;;;;;7.07;4.13;;;;;;;;;;4989050;28;20034;-74
2022/05/04 05:10:09;;;;;;;11.15;4.20;;;;;;;;;;4990897;28;20041;-71
2022/05/04 05:12:35;;;;;;;5.55;4.53;;;;;;;;;;4988900;28;20026;-71
2022/05/04 05:17:45;;;;;;;4.95;3.97;;;;;;;;;;4989648;28;20172;-73
2022/05/04 05:20:11;;;;;;;6.65;4.40;;;;;;;;;;4990037;28;20034;-72
2022/05/04 05:22:37;;;;;;;8.50;4.20;;;;;;;;;;4987562;28;20399;-73
2022/05/04 05:25:03;;;;;;;4.30;3.88;;;;;;;;;;4990600;28;20478;-72
2022/05/04 05:27:29;;;;;;;8.60;4.10;;;;;;;;;;4989692;28;20443;-73
2022/05/04 05:29:55;;;;;;;5.07;3.90;;;;;;;;;;4990619;28;20038;-73
2022/05/04 05:32:20;;;;;;;8.32;4.45;;;;;;;;;;4988708;28;20355;-71
2022/05/04 05:34:45;;;;;;;8.95;4.97;;;;;;;;;;4989088;28;20050;-72
2022/05/04 05:37:11;;;;;;;8.43;4.47;;;;;;;;;;4989689;28;20046;-72
2022/05/04 05:39:36;;;;;;;6.68;4.60;;;;;;;;;;4989667;28;20015;-74
2022/05/04 05:42:02;;;;;;;6.68;4.20;;;;;;;;;;4989648;28;20034;-72
2022/05/04 05:44:27;;;;;;;11.23;5.25;;;;;;;;;;4989620;28;20066;-73
2022/05/04 05:46:52;;;;;;;12.52;5.07;;;;;;;;;;4990110;28;20031;-73
2022/05/04 05:49:18;;;;;;;9.10;5.00;;;;;;;;;;4989349;28;20078;-72
2022/05/04 05:51:43;;;;;;;8.73;4.57;;;;;;;;;;4990822;28;20205;-72
2022/05/04 05:54:09;;;;;;;6.63;4.45;;;;;;;;;;4986842;28;20046;-72
2022/05/04 05:56:34;;;;;;;6.63;4.30;;;;;;;;;;4988537;28;20041;-72
2022/05/04 05:59:00;;;;;;;6.93;4.93;;;;;;;;;;4989810;28;20073;-72
2022/05/04 06:01:25;;;;;;;18.25;5.35;;;;;;;;;;4990077;28;20517;-72
2022/05/04 06:03:52;;;;;;;9.60;4.63;;;;;;;;;;4990943;28;20484;-72
2022/05/04 06:06:18;;;;;;;8.85;4.55;;;;;;;;;;4990148;28;20034;-72
2022/05/04 06:08:43;;;;;;;9.63;4.07;;;;;;;;;;4989455;28;20042;-71
2022/05/04 06:11:08;;;;;;;6.50;4.45;;;;;;;;;;4988878;28;20042;-71
2022/05/04 06:13:34;;;;;;;7.28;4.43;;;;;;;;;;4988898;28;20038;-70
2022/05/04 06:15:59;;;;;;;7.63;4.75;;;;;;;;;;4991145;28;20058;-70
2022/05/04 06:18:24;;;;;;;6.78;4.30;;;;;;;;;;5003471;28;20931;-70
2022/05/04 06:20:50;;;;;;;6.72;4.80;;;;;;;;;;4990121;28;20045;-69
2022/05/04 06:23:15;;;;;;;8.18;4.80;;;;;;;;;;4985628;28;20046;-71
2022/05/04 06:25:42;;;;;;;6.05;4.28;;;;;;;;;;4990764;28;20562;-70
2022/05/04 06:28:07;;;;;;;7.68;4.60;;;;;;;;;;4988990;28;20050;-68
2022/05/04 06:36:00;;;;;;;8.05;4.32;;;;;;;;;;4989420;28;20096;-70
2022/05/04 06:38:26;;;;;;;9.13;4.65;;;;;;;;;;4989418;28;20046;-72
2022/05/04 06:40:53;;;;;;;6.10;4.03;;;;;;;;;;4990343;28;20120;-70
2022/05/04 06:43:18;;;;;;;5.47;3.92;;;;;;;;;;4988869;28;20094;-69
2022/05/04 06:45:43;;;;;;;6.15;4.15;;;;;;;;;;4990029;28;20022;-70
2022/05/04 06:48:09;;;;;;;6.90;4.30;;;;;;;;;;4989893;28;20066;-72
2022/05/04 06:50:34;;;;;;;8.10;4.40;;;;;;;;;;4990715;28;20065;-71
2022/05/04 06:52:59;;;;;;;6.90;4.10;;;;;;;;;;4989902;28;20069;-70
2022/05/04 06:55:25;;;;;;;11.95;4.82;;;;;;;;;;4990373;28;20031;-71
2022/05/04 06:57:50;;;;;;;6.38;4.38;;;;;;;;;;4985777;28;20023;-71
2022/05/04 07:00:16;;;;;;;8.13;4.30;;;;;;;;;;4991090;28;20030;-70
2022/05/04 07:02:41;;;;;;;7.68;4.30;;;;;;;;;;4990603;28;20453;-69
2022/05/04 07:05:07;;;;;;;6.00;4.35;;;;;;;;;;4990578;28;20559;-71
2022/05/04 07:07:33;;;;;;;7.82;4.65;;;;;;;;;;4988476;28;20076;-69
2022/05/04 07:09:59;;;;;;;8.10;4.43;;;;;;;;;;4989832;28;20030;-73
2022/05/04 07:12:25;;;;;;;7.60;4.47;;;;;;;;;;4991029;28;20041;-70
2022/05/04 07:14:53;;;;;;;7.57;4.38;;;;;;;;;;5004267;28;20049;-70
2022/05/04 07:17:19;;;;;;;8.48;4.82;;;;;;;;;;4990114;28;20041;-70
2022/05/04 07:19:46;;;;;;;7.57;4.63;;;;;;;;;;4992496;28;20030;-71
2022/05/04 07:22:12;;;;;;;7.85;4.35;;;;;;;;;;4994594;28;20038;-70
2022/05/04 07:24:37;;;;;;;6.53;4.53;;;;;;;;;;4995301;28;20429;-71
2022/05/04 07:27:03;;;;;;;18.02;5.85;;;;;;;;;;4995187;28;20042;-70
2022/05/04 07:29:28;;;;;;;8.13;5.00;;;;;;;;;;4993374;28;20034;-70
2022/05/04 07:31:54;;;;;;;9.85;5.22;;;;;;;;;;4994890;28;20098;-70
2022/05/04 07:34:19;;;;;;;10.13;4.72;;;;;;;;;;4993269;28;20038;-70
2022/05/04 07:36:45;;;;;;;6.55;4.05;;;;;;;;;;4994426;28;20821;-71
2022/05/04 07:42:21;;;;;;;7.68;3.88;;;;;;;;;;4994668;28;20023;-72
2022/05/04 07:44:43;;;;;;;6.35;3.90;;;;;;;;;;4991105;28;20053;-70
2022/05/04 07:47:09;;;;;;;7.55;4.28;;;;;;;;;;4992749;28;20401;-71
2022/05/04 07:49:34;;;;;;;7.85;4.28;;;;;;;;;;4994462;28;20054;-70
2022/05/04 07:51:59;;;;;;;6.68;4.03;;;;;;;;;;4994922;28;20394;-70
2022/05/04 07:54:25;;;;;;;5.68;3.78;;;;;;;;;;4994579;28;20027;-71
2022/05/04 07:56:52;;;;;;;5.93;3.97;;;;;;;;;;4994449;28;20629;-71
2022/05/04 07:59:18;;;;;;;7.00;4.40;;;;;;;;;;4993122;28;20061;-72
2022/05/04 08:04:27;;;;;;;15.68;4.28;;;;;;;;;;4992493;28;20104;-70
2022/05/04 08:06:52;;;;;;;9.27;4.13;;;;;;;;;;4992680;28;20030;-71
2022/05/04 08:09:18;;;;;;;11.02;4.70;;;;;;;;;;4993621;28;20475;-70
2022/05/04 08:11:44;;;;;;;9.60;4.15;;;;;;;;;;4993306;28;20038;-72
2022/05/04 08:14:12;;;;;;;7.43;3.90;;;;;;;;;;4991836;28;20038;-69
2022/05/04 08:16:39;;;;;;;7.35;4.32;;;;;;;;;;4994199;28;20414;-71
2022/05/04 08:19:06;;;;;;;8.77;4.00;;;;;;;;;;4993641;28;20057;-71
2022/05/04 08:21:32;;;;;;;8.32;4.45;;;;;;;;;;4994516;28;20040;-71
2022/05/04 08:23:58;;;;;;;6.38;4.05;;;;;;;;;;4992674;28;20447;-70
2022/05/04 08:26:24;;;;;;;7.63;3.88;;;;;;;;;;4993221;28;20536;-71
2022/05/04 08:28:51;;;;;;;5.90;3.80;;;;;;;;;;4993540;28;20038;-70
2022/05/04 08:31:21;;;;;;;5.40;3.67;;;;;;;;;;4993090;28;20130;-70
2022/05/04 08:33:47;;;;;;;7.90;3.83;;;;;;;;;;4993201;28;20030;-71
2022/05/04 08:36:13;;;;;;;13.52;3.85;;;;;;;;;;4992170;28;20434;-70
2022/05/04 08:38:38;;;;;;;8.35;4.28;;;;;;;;;;4993114;28;20026;-71
2022/05/04 08:41:03;;;;;;;5.57;3.70;;;;;;;;;;4992522;28;20466;-70
2022/05/04 08:43:31;;;;;;;5.90;3.78;;;;;;;;;;4992847;28;20061;-72
2022/05/04 08:46:00;;;;;;;5.70;3.60;;;;;;;;;;4993586;28;20593;-70
2022/05/04 08:48:25;;;;;;;6.72;4.20;;;;;;;;;;4990093;28;20363;-73
2022/05/04 08:50:51;;;;;;;6.88;3.63;;;;;;;;;;4993421;28;20042;-71
2022/05/04 08:53:16;;;;;;;6.95;3.85;;;;;;;;;;5008414;28;20492;-70
2022/05/04 08:55:44;;;;;;;8.50;4.15;;;;;;;;;;4994840;28;20045;-70
2022/05/04 08:58:10;;;;;;;6.05;4.07;;;;;;;;;;4994487;28;20031;-70
2022/05/04 09:00:35;;;;;;;7.22;3.85;;;;;;;;;;4994184;28;20549;-70
2022/05/04 09:03:00;;;;;;;6.28;4.43;;;;;;;;;;4992669;28;20039;-70
2022/05/04 09:05:29;;;;;;;6.18;4.05;;;;;;;;;;4992119;28;20042;-70
2022/05/04 09:07:56;;;;;;;6.80;4.15;;;;;;;;;;4990912;28;20053;-71
2022/05/04 09:10:34;;;;;;;6.57;4.90;;;;;;;;;;4989814;28;20031;-69
2022/05/04 09:13:00;;;;;;;7.60;4.07;;;;;;;;;;4991736;28;20082;-71
2022/05/04 09:15:28;;;;;;;6.45;3.88;;;;;;;;;;4992469;28;20481;-71
2022/05/04 09:18:05;;;;;;;6.53;3.80;;;;;;;;;;4991455;28;20076;-72
2022/05/04 09:20:45;;;;;;;7.32;4.10;;;;;;;;;;4991197;28;20124;-74
2022/05/04 09:23:18;;;;;;;6.75;4.43;;;;;;;;;;4992380;28;20038;-73
2022/05/04 09:25:43;;;;;;;7.47;4.47;;;;;;;;;;4993076;28;20460;-73
2022/05/04 09:28:14;;;;;;;7.93;4.47;;;;;;;;;;4991880;28;20046;-72
2022/05/04 09:30:51;;;;;;;5.97;4.45;;;;;;;;;;4991497;28;20038;-73
2022/05/04 09:33:18;;;;;;;5.70;3.97;;;;;;;;;;4991524;28;20074;-72
2022/05/04 09:35:43;;;;;;;10.80;4.47;;;;;;;;;;4991878;28;20442;-70
2022/05/04 09:46:55;;;;;;;7.88;4.80;;;;;;;;;;4990845;28;20049;-71
2022/05/04 09:49:23;;;;;;;5.50;4.80;;;;;;;;;;4991772;28;20054;-70
2022/05/04 09:51:50;;;;;;;8.10;4.75;;;;;;;;;;4992535;28;20501;-70
2022/05/04 09:54:25;;;;;;;6.00;3.92;;;;;;;;;;4992521;28;20124;-70
2022/05/04 09:56:59;;;;;;;4.88;4.30;;;;;;;;;;4991626;28;20038;-70
2022/05/04 09:59:29;;;;;;;6.07;4.00;;;;;;;;;;4991508;28;20367;-70
2022/05/04 10:01:55;;;;;;;9.52;4.35;;;;;;;;;;4990001;28;20506;-71
2022/05/04 10:04:23;;;;;;;6.20;4.25;;;;;;;;;;4990021;28;20042;-71
2022/05/04 10:06:49;;;;;;;7.43;4.20;;;;;;;;;;4993149;28;20410;-69
2022/05/04 10:09:15;;;;;;;4.60;3.95;;;;;;;;;;4992329;28;20045;-71
2022/05/04 10:11:41;;;;;;;9.30;4.22;;;;;;;;;;4991528;28;20524;-70
2022/05/04 10:14:10;;;;;;;7.45;4.40;;;;;;;;;;4991764;28;20117;-70
2022/05/04 10:16:45;;;;;;;7.18;4.20;;;;;;;;;;4991294;28;20040;-70
2022/05/04 10:19:42;;;;;;;7.05;4.55;;;;;;;;;;4992516;28;20125;-69
2022/05/04 10:22:14;;;;;;;8.35;4.20;;;;;;;;;;4990640;28;20046;-72
2022/05/04 10:24:42;;;;;;;8.50;4.35;;;;;;;;;;4990363;28;20386;-69
2022/05/04 10:27:22;;;;;;;6.65;4.20;;;;;;;;;;4990830;28;20565;-72
2022/05/04 10:32:45;;;;;;;7.22;4.68;;;;;;;;;;4991049;28;20096;-69
2022/05/04 10:35:21;;;;;;;9.32;4.53;;;;;;;;;;4990983;28;20525;-70
2022/05/04 10:37:58;;;;;;;9.48;4.40;;;;;;;;;;4991561;28;20035;-70
2022/05/04 10:40:31;;;;;;;6.35;4.50;;;;;;;;;;4991735;28;20045;-70
2022/05/04 10:43:06;;;;;;;6.63;3.88;;;;;;;;;;4992137;28;20027;-69
2022/05/04 10:45:34;;;;;;;6.18;4.47;;;;;;;;;;4990993;28;20430;-73
2022/05/04 10:48:15;;;;;;;5.82;5.00;;;;;;;;;;4991045;28;20046;-74
2022/05/04 10:50:49;;;;;;;5.53;3.97;;;;;;;;;;4990356;28;20030;-70
2022/05/04 10:53:39;;;;;;;5.07;4.15;;;;;;;;;;4991403;28;20137;-71
2022/05/04 10:56:06;;;;;;;6.95;4.00;;;;;;;;;;4987108;28;20034;-71
2022/05/04 10:58:54;;;;;;;5.30;4.38;;;;;;;;;;4993515;28;20034;-73
2022/05/04 11:01:26;;;;;;;5.50;4.03;;;;;;;;;;4994424;28;20030;-71
2022/05/04 11:03:57;;;;;;;6.88;4.75;;;;;;;;;;4994995;28;20390;-72
2022/05/04 11:06:29;;;;;;;8.55;4.80;;;;;;;;;;4994695;28;20176;-72
2022/05/04 11:08:59;;;;;;;4.97;4.40;;;;;;;;;;4994445;28;20053;-74
2022/05/04 11:11:27;;;;;;;5.55;4.53;;;;;;;;;;4993012;28;20417;-73
2022/05/04 11:13:52;;;;;;;8.02;4.30;;;;;;;;;;4992744;28;20097;-72
2022/05/04 11:16:26;;;;;;;9.18;4.70;;;;;;;;;;4991967;28;20340;-71
2022/05/04 11:18:52;;;;;;;5.68;4.05;;;;;;;;;;4991399;28;20018;-72
2022/05/04 11:21:18;;;;;;;5.53;4.00;;;;;;;;;;4992231;28;20549;-71
2022/05/04 11:23:51;;;;;;;6.88;3.70;;;;;;;;;;4993615;28;20045;-72
2022/05/04 11:26:22;;;;;;;6.72;4.20;;;;;;;;;;4993430;28;20043;-70
2022/05/04 11:28:49;;;;;;;6.97;4.20;;;;;;;;;;4992595;28;20049;-70
2022/05/04 11:31:15;;;;;;;7.10;4.80;;;;;;;;;;4993384;28;20050;-71
2022/05/04 11:33:42;;;;;;;7.07;4.32;;;;;;;;;;4992372;28;20026;-71
2022/05/04 11:36:07;;;;;;;4.32;3.67;;;;;;;;;;4992528;28;20490;-70
2022/05/04 11:38:33;;;;;;;5.85;3.60;;;;;;;;;;4991259;28;20035;-72
2022/05/04 11:41:01;;;;;;;6.50;3.75;;;;;;;;;;4992178;28;20432;-73
2022/05/04 11:43:34;;;;;;;6.43;2.90;;;;;;;;;;4988587;28;20030;-74
2022/05/04 11:46:06;;;;;;;6.43;2.85;;;;;;;;;;4976439;28;20410;-72
2022/05/04 11:48:32;;;;;;;3.60;2.90;;;;;;;;;;4996760;28;20041;-73
2022/05/04 11:50:58;;;;;;;3.63;2.60;;;;;;;;;;4993787;28;20034;-71
2022/05/04 11:53:25;;;;;;;4.13;2.78;;;;;;;;;;4993806;28;20405;-71
2022/05/04 11:55:51;;;;;;;4.68;2.80;;;;;;;;;;4990798;28;20042;-70
2022/05/04 11:58:16;;;;;;;4.65;3.28;;;;;;;;;;4990032;28;20475;-72
2022/05/04 12:00:42;;;;;;;6.15;2.85;;;;;;;;;;5007407;28;20031;-71
2022/05/04 12:03:08;;;;;;;6.95;2.97;;;;;;;;;;4991643;28;20399;-71
2022/05/04 12:05:35;;;;;;;6.90;3.55;;;;;;;;;;4992494;28;20422;-71
2022/05/04 12:08:01;;;;;;;5.25;3.00;;;;;;;;;;4992658;28;20108;-71
2022/05/04 12:10:27;;;;;;;6.65;3.60;;;;;;;;;;4991136;28;20042;-71
2022/05/04 12:12:53;;;;;;;9.32;4.25;;;;;;;;;;4993899;28;20114;-70
2022/05/04 12:15:23;;;;;;;7.57;3.35;;;;;;;;;;4994219;28;20105;-70
2022/05/04 12:17:50;;;;;;;8.25;3.35;;;;;;;;;;4994001;28;20035;-71
2022/05/04 12:20:21;;;;;;;3.50;3.20;;;;;;;;;;4992391;28;20044;-71
2022/05/04 12:22:48;;;;;;;4.45;3.28;;;;;;;;;;4993303;28;20062;-70
2022/05/04 12:25:13;;;;;;;10.90;4.13;;;;;;;;;;4993099;28;20041;-74
2022/05/04 12:27:38;;;;;;;8.45;3.72;;;;;;;;;;4992770;28;20114;-73
2022/05/04 12:35:44;;;;;;;3.78;2.70;;;;;;;;;;4992453;28;20041;-71
2022/05/04 12:38:13;;;;;;;6.90;3.05;;;;;;;;;;4990732;28;20430;-72
2022/05/04 12:40:39;;;;;;;3.85;3.17;;;;;;;;;;4991225;28;20133;-70
2022/05/04 12:43:05;;;;;;;5.80;3.17;;;;;;;;;;4991684;28;20125;-72
2022/05/04 12:45:34;;;;;;;4.20;2.78;;;;;;;;;;4991726;28;20040;-72
2022/05/04 12:48:00;;;;;;;4.00;2.90;;;;;;;;;;4991932;28;20038;-71
2022/05/04 12:50:27;;;;;;;3.22;2.90;;;;;;;;;;4991747;28;20040;-72
2022/05/04 12:52:54;;;;;;;4.88;2.97;;;;;;;;;;4989858;28;20031;-71
2022/05/04 12:55:20;;;;;;;6.05;2.60;;;;;;;;;;4989087;28;20049;-73
2022/05/04 12:57:45;;;;;;;7.30;2.83;;;;;;;;;;4990002;28;20034;-70
2022/05/04 13:00:12;;;;;;;4.45;2.70;;;;;;;;;;4990970;28;20359;-71
2022/05/04 13:02:42;;;;;;;3.35;2.90;;;;;;;;;;4988523;28;20494;-70
2022/05/04 13:05:09;;;;;;;5.15;2.95;;;;;;;;;;4986866;28;20035;-76
2022/05/04 13:07:35;;;;;;;3.72;3.00;;;;;;;;;;4977554;28;20490;-72
2022/05/04 13:10:02;;;;;;;4.25;2.78;;;;;;;;;;4990709;28;20022;-70
2022/05/04 13:12:27;;;;;;;4.25;2.60;;;;;;;;;;4990050;28;20030;-72
2022/05/04 13:14:54;;;;;;;3.63;2.67;;;;;;;;;;4973206;28;20047;-74
2022/05/04 13:17:19;;;;;;;3.92;2.80;;;;;;;;;;4983193;28;20038;-72
2022/05/04 13:19:45;;;;;;;3.40;2.70;;;;;;;;;;4982501;28;20043;-72
2022/05/04 13:22:10;;;;;;;3.67;3.00;;;;;;;;;;4971162;28;20042;-71
2022/05/04 13:24:35;;;;;;;6.05;3.50;;;;;;;;;;4970666;28;20403;-72
2022/05/04 13:27:01;;;;;;;7.18;3.05;;;;;;;;;;4970270;28;20037;-70
2022/05/04 13:29:27;;;;;;;4.57;2.92;;;;;;;;;;4985219;28;20375;-70
2022/05/04 13:31:52;;;;;;;5.45;2.40;;;;;;;;;;4991782;28;20102;-72
2022/05/04 13:34:18;;;;;;;4.80;2.58;;;;;;;;;;4991637;28;20434;-72
2022/05/04 13:36:43;;;;;;;3.50;2.63;;;;;;;;;;4992509;28;20029;-70
2022/05/04 13:39:08;;;;;;;4.30;3.03;;;;;;;;;;4989872;28;20031;-70
2022/05/04 13:41:34;;;;;;;3.35;3.03;;;;;;;;;;4990638;28;20033;-70
2022/05/04 13:43:59;;;;;;;3.75;3.03;;;;;;;;;;4990560;28;20038;-70
2022/05/04 13:46:26;;;;;;;3.10;2.75;;;;;;;;;;4990366;28;20053;-74
2022/05/04 13:48:51;;;;;;;3.92;2.72;;;;;;;;;;4990041;28;20026;-71
2022/05/04 13:54:01;;;;;;;3.42;3.10;;;;;;;;;;4989081;28;20049;-70
2022/05/04 13:56:27;;;;;;;6.18;3.42;;;;;;;;;;4989702;28;20050;-71
2022/05/04 13:58:53;;;;;;;3.53;3.22;;;;;;;;;;4990920;28;20037;-70
2022/05/04 14:01:19;;;;;;;4.82;3.40;;;;;;;;;;4989324;28;20038;-69
2022/05/04 14:03:44;;;;;;;4.80;3.50;;;;;;;;;;4989606;28;20085;-74
2022/05/04 14:06:10;;;;;;;8.05;3.60;;;;;;;;;;4989076;28;20030;-71
2022/05/04 14:08:35;;;;;;;5.88;3.65;;;;;;;;;;4989792;28;20398;-71
2022/05/04 14:11:01;;;;;;;7.40;3.63;;;;;;;;;;4991101;28;20034;-70
2022/05/04 14:13:27;;;;;;;5.55;3.08;;;;;;;;;;4990346;28;20125;-70
2022/05/04 14:16:00;;;;;;;3.53;2.92;;;;;;;;;;4991112;28;20057;-71
2022/05/04 14:18:26;;;;;;;;;;;;;;;;;;4988795;28;20042;-68
2022/05/04 14:20:52;;;;;;;4.43;3.65;;;;;;;;;;4992330;28;19918;-70
2022/05/04 14:23:18;;;;;;;5.45;3.33;;;;;;;;;;4990492;28;20056;-71
2022/05/04 14:25:44;;;;;;;4.43;3.30;;;;;;;;;;4991985;28;20046;-71
2022/05/04 14:28:09;;;;;;;5.97;3.60;;;;;;;;;;4993655;28;20045;-71
2022/05/04 14:30:35;;;;;;;4.57;3.45;;;;;;;;;;4995350;28;20038;-71
2022/05/04 14:33:02;;;;;;;5.55;3.50;;;;;;;;;;4996416;28;20461;-71
2022/05/04 14:35:27;;;;;;;4.78;3.55;;;;;;;;;;4994161;28;20045;-70
2022/05/04 14:37:53;;;;;;;5.47;3.45;;;;;;;;;;4994402;28;20038;-71
2022/05/04 14:40:19;;;;;;;5.88;3.20;;;;;;;;;;4992806;28;20514;-69
2022/05/04 14:42:45;;;;;;;5.28;3.38;;;;;;;;;;4993223;28;20085;-73
2022/05/04 14:45:11;;;;;;;7.05;3.30;;;;;;;;;;4995193;28;20474;-71
2022/05/04 14:47:37;;;;;;;4.40;3.28;;;;;;;;;;4992446;28;20038;-71
2022/05/04 14:50:02;;;;;;;7.05;3.47;;;;;;;;;;4995150;28;20045;-70
2022/05/04 14:52:28;;;;;;;5.30;3.40;;;;;;;;;;4993954;28;20068;-71
2022/05/04 14:54:53;;;;;;;7.68;3.63;;;;;;;;;;4994905;28;20026;-71
2022/05/04 14:57:20;;;;;;;4.15;3.47;;;;;;;;;;4994096;28;20038;-70
2022/05/04 14:59:45;;;;;;;5.32;3.40;;;;;;;;;;4994689;28;20387;-71
2022/05/04 15:02:11;;;;;;;4.57;3.58;;;;;;;;;;4991794;28;20042;-72
2022/05/04 15:07:21;;;;;;;5.32;3.90;;;;;;;;;;4991167;28;20072;-71
2022/05/04 15:09:46;;;;;;;4.85;3.20;;;;;;;;;;4994440;28;20026;-70
2022/05/04 15:12:12;;;;;;;5.78;3.53;;;;;;;;;;4993963;28;20038;-70
2022/05/04 15:14:38;;;;;;;4.00;3.08;;;;;;;;;;4994872;28;20039;-70
2022/05/04 15:17:03;;;;;;;7.15;3.65;;;;;;;;;;4994084;28;20039;-71
2022/05/04 15:19:29;;;;;;;4.53;2.85;;;;;;;;;;4989196;28;20108;-70
2022/05/04 15:21:57;;;;;;;4.30;3.22;;;;;;;;;;4993034;28;20972;-71